createdAt,value
2019-03-06T00:01:17.947Z,6.37
2019-03-06T00:03:21.952Z,6.10
2019-03-06T00:05:25.818Z,9.00
2019-03-06T00:07:30.764Z,6.80
2019-03-06T00:09:34.590Z,7.23
2019-03-06T00:11:38.375Z,5.90
2019-03-06T00:13:42.290Z,6.93
2019-03-06T00:15:46.404Z,7.90
2019-03-06T00:17:50.336Z,9.67
2019-03-06T00:19:54.538Z,8.20
2019-03-06T00:21:59.195Z,6.37
2019-03-06T00:24:03.038Z,7.63
2019-03-06T00:26:07.358Z,7.90
2019-03-06T00:28:12.902Z,8.47
2019-03-06T00:30:16.950Z,6.57
2019-03-06T00:32:21.035Z,8.53
2019-03-06T00:34:25.007Z,5.90
2019-03-06T00:36:31.435Z,7.83
2019-03-06T00:38:35.252Z,9.33
2019-03-06T00:40:47.108Z,7.33
2019-03-06T00:42:51.179Z,7.33
2019-03-06T00:44:55.308Z,6.73
2019-03-06T00:47:00.434Z,7.67
2019-03-06T00:49:04.403Z,7.07
2019-03-06T00:51:08.216Z,8.53
2019-03-06T00:53:12.051Z,9.33
2019-03-06T00:55:15.951Z,9.77
2019-03-06T00:57:19.762Z,8.90
2019-03-06T00:59:23.882Z,6.30
2019-03-06T01:01:28.286Z,6.63
2019-03-06T01:03:32.527Z,7.40
2019-03-06T01:05:36.503Z,8.20
2019-03-06T01:07:40.317Z,7.40
2019-03-06T01:09:44.155Z,7.83
2019-03-06T01:11:48.271Z,9.30
2019-03-06T01:13:52.137Z,6.63
2019-03-06T01:15:56.659Z,7.23
2019-03-06T01:18:01.276Z,9.50
2019-03-06T01:20:06.227Z,6.23
2019-03-06T01:22:10.143Z,8.47
2019-03-06T01:24:14.136Z,6.80
2019-03-06T01:26:18.010Z,10.63
2019-03-06T01:28:21.868Z,8.67
2019-03-06T01:30:25.823Z,7.17
2019-03-06T01:32:30.468Z,8.73
2019-03-06T01:34:43.387Z,7.93
2019-03-06T01:37:21.485Z,8.27
2019-03-06T01:39:53.556Z,8.73
2019-03-06T01:42:13.161Z,10.73
2019-03-06T01:44:24.263Z,8.23
2019-03-06T01:46:28.849Z,9.63
2019-03-06T01:48:32.863Z,10.30
2019-03-06T01:50:36.795Z,9.67
2019-03-06T01:52:40.691Z,8.83
2019-03-06T01:54:44.661Z,10.83
2019-03-06T01:56:48.462Z,11.83
2019-03-06T01:58:52.249Z,14.47
2019-03-06T02:00:56.271Z,12.03
2019-03-06T02:03:10.148Z,12.30
2019-03-06T02:05:14.251Z,11.23
2019-03-06T02:07:18.688Z,10.53
2019-03-06T02:09:23.299Z,10.07
2019-03-06T02:11:27.536Z,9.83
2019-03-06T02:13:31.898Z,11.43
2019-03-06T02:15:35.758Z,12.33
2019-03-06T02:17:39.615Z,14.10
2019-03-06T02:19:44.036Z,12.93
2019-03-06T02:21:47.837Z,14.97
2019-03-06T02:23:51.736Z,13.20
2019-03-06T02:25:55.595Z,11.87
2019-03-06T02:28:00.209Z,15.87
2019-03-06T02:30:08.377Z,17.55
2019-03-06T02:32:12.219Z,15.67
2019-03-06T02:34:16.067Z,12.53
2019-03-06T02:36:20.329Z,13.30
2019-03-06T02:38:24.113Z,12.63
2019-03-06T02:40:28.086Z,18.50
2019-03-06T02:42:32.467Z,17.63
2019-03-06T02:44:36.308Z,15.90
2019-03-06T02:46:40.175Z,16.33
2019-03-06T02:48:44.325Z,16.77
2019-03-06T02:50:48.182Z,18.53
2019-03-06T02:52:51.974Z,14.87
2019-03-06T02:54:55.855Z,15.17
2019-03-06T02:57:00.224Z,16.83
2019-03-06T02:59:35.639Z,17.90
2019-03-06T03:02:00.040Z,17.80
2019-03-06T03:04:12.633Z,17.43
2019-03-06T03:06:21.925Z,18.00
2019-03-06T03:08:25.767Z,17.30
2019-03-06T03:10:30.324Z,16.43
2019-03-06T03:12:34.553Z,15.33
2019-03-06T03:14:38.371Z,17.80
2019-03-06T03:16:42.373Z,15.40
2019-03-06T03:18:46.289Z,15.73
2019-03-06T03:20:50.201Z,13.90
2019-03-06T03:22:53.999Z,19.07
2019-03-06T03:24:57.981Z,16.27
2019-03-06T03:27:02.460Z,17.97
2019-03-06T03:29:06.335Z,18.43
2019-03-06T03:31:10.166Z,19.50
2019-03-06T03:33:14.203Z,18.70
2019-03-06T03:35:18.314Z,17.67
2019-03-06T03:37:22.107Z,15.33
2019-03-06T03:39:26.272Z,18.53
2019-03-06T03:41:30.785Z,16.73
2019-03-06T03:43:34.822Z,16.67
2019-03-06T03:45:38.698Z,14.33
2019-03-06T03:47:42.833Z,16.03
2019-03-06T03:49:46.615Z,16.70
2019-03-06T03:51:50.425Z,19.47
2019-03-06T03:53:54.255Z,15.97
2019-03-06T03:55:58.031Z,16.67
2019-03-06T03:58:02.900Z,16.13
2019-03-06T04:00:08.614Z,16.53
2019-03-06T04:02:13.107Z,25.50
2019-03-06T04:04:16.956Z,16.07
2019-03-06T04:06:20.748Z,17.90
2019-03-06T04:08:24.606Z,16.20
2019-03-06T04:10:28.505Z,18.60
2019-03-06T04:12:34.277Z,13.67
2019-03-06T04:14:38.226Z,20.87
2019-03-06T04:16:42.426Z,17.83
2019-03-06T04:18:46.263Z,17.87
2019-03-06T04:20:50.202Z,19.17
2019-03-06T04:22:54.473Z,19.57
2019-03-06T04:24:58.321Z,14.57
2019-03-06T04:27:03.072Z,17.30
2019-03-06T04:29:06.906Z,13.40
2019-03-06T04:31:10.762Z,15.70
2019-03-06T04:33:14.569Z,16.80
2019-03-06T04:35:19.104Z,19.47
2019-03-06T04:37:22.892Z,14.57
2019-03-06T04:39:26.670Z,14.73
2019-03-06T04:41:31.312Z,13.37
2019-03-06T04:43:35.236Z,14.73
2019-03-06T04:45:39.111Z,17.30
2019-03-06T04:47:42.920Z,17.00
2019-03-06T04:49:52.581Z,16.17
2019-03-06T04:51:52.282Z,14.37
2019-03-06T04:53:56.136Z,18.17
2019-03-06T04:56:00.919Z,17.73
2019-03-06T04:58:04.813Z,17.00
2019-03-06T05:00:10.093Z,11.93
2019-03-06T05:02:14.050Z,15.37
2019-03-06T05:04:19.083Z,13.70
2019-03-06T05:06:22.994Z,13.63
2019-03-06T05:08:26.783Z,13.03
2019-03-06T05:10:31.474Z,13.47
2019-03-06T05:12:35.371Z,15.40
2019-03-06T05:14:39.154Z,13.30
2019-03-06T05:16:57.502Z,12.37
2019-03-06T05:19:04.334Z,10.97
2019-03-06T05:21:08.199Z,14.40
2019-03-06T05:23:11.984Z,12.53
2019-03-06T05:25:15.851Z,12.37
2019-03-06T05:27:19.894Z,9.23
2019-03-06T05:29:23.663Z,15.53
2019-03-06T05:31:27.600Z,12.23
2019-03-06T05:33:32.238Z,12.30
2019-03-06T05:36:01.928Z,12.23
2019-03-06T05:38:30.694Z,11.60
2019-03-06T05:40:34.635Z,9.50
2019-03-06T05:42:38.487Z,10.50
2019-03-06T05:44:42.306Z,12.80
2019-03-06T05:46:46.258Z,11.23
2019-03-06T05:48:50.066Z,14.90
2019-03-06T05:50:53.873Z,9.60
2019-03-06T05:52:57.726Z,11.27
2019-03-06T05:55:02.718Z,9.00
2019-03-06T05:57:06.587Z,6.57
2019-03-06T05:59:10.420Z,9.13
2019-03-06T06:01:14.259Z,10.80
2019-03-06T06:03:18.094Z,9.83
2019-03-06T06:05:22.502Z,8.33
2019-03-06T06:07:26.278Z,7.20
2019-03-06T06:09:30.467Z,9.10
2019-03-06T06:11:34.547Z,9.93
2019-03-06T06:13:38.403Z,6.37
2019-03-06T06:15:42.670Z,7.70
2019-03-06T06:17:46.526Z,5.47
2019-03-06T06:19:50.307Z,7.10
2019-03-06T06:22:14.728Z,7.70
2019-03-06T06:24:21.681Z,7.80
2019-03-06T06:26:25.471Z,8.10
2019-03-06T06:28:29.282Z,4.23
2019-03-06T06:30:34.049Z,6.63
2019-03-06T06:32:37.830Z,7.40
2019-03-06T06:34:41.627Z,4.30
2019-03-06T06:36:45.443Z,4.03
2019-03-06T06:38:49.295Z,4.07
2019-03-06T06:40:53.162Z,5.77
2019-03-06T06:42:56.935Z,3.67
2019-03-06T06:45:01.319Z,4.03
2019-03-06T06:47:05.411Z,7.73
2019-03-06T06:49:09.267Z,4.33
2019-03-06T06:52:10.067Z,4.50
2019-03-06T06:54:28.036Z,71.23
2019-03-06T06:57:06.769Z,5.90
2019-03-06T06:59:21.523Z,7.83
2019-03-06T07:01:58.740Z,4.53
2019-03-06T07:04:47.772Z,5.00
2019-03-06T07:07:09.687Z,4.13
2019-03-06T07:09:26.935Z,6.03
2019-03-06T07:11:46.925Z,8.60
2019-03-06T07:14:06.591Z,5.07
2019-03-06T07:16:41.999Z,5.73
2019-03-06T07:19:03.535Z,3.30
2019-03-06T07:21:15.006Z,5.87
2019-03-06T07:23:41.446Z,3.13
2019-03-06T07:26:02.804Z,7.27
2019-03-06T07:28:24.100Z,7.73
2019-03-06T07:30:46.543Z,4.97
2019-03-06T07:33:12.486Z,4.23
2019-03-06T07:36:16.042Z,4.97
2019-03-06T07:38:33.311Z,3.27
2019-03-06T07:40:56.222Z,2.30
2019-03-06T07:43:13.256Z,4.70
2019-03-06T07:45:54.489Z,4.93
2019-03-06T07:48:16.254Z,5.27
2019-03-06T07:50:39.474Z,5.83
2019-03-06T07:53:08.730Z,4.00
2019-03-06T07:55:29.310Z,5.37
2019-03-06T07:57:49.192Z,8.17
2019-03-06T07:59:53.025Z,2.50
2019-03-06T08:01:59.766Z,6.20
2019-03-06T08:04:08.749Z,6.67
2019-03-06T08:06:12.623Z,7.27
2019-03-06T08:08:17.431Z,5.80
2019-03-06T08:10:23.491Z,5.63
2019-03-06T08:12:39.344Z,4.67
2019-03-06T08:15:02.457Z,6.03
2019-03-06T08:17:16.854Z,4.27
2019-03-06T08:19:34.351Z,6.10
2019-03-06T08:22:00.339Z,8.23
2019-03-06T08:24:20.671Z,5.70
2019-03-06T08:26:24.638Z,4.43
2019-03-06T08:28:29.000Z,4.90
2019-03-06T08:30:36.995Z,3.03
2019-03-06T08:32:40.991Z,7.93
2019-03-06T08:34:44.774Z,6.50
2019-03-06T08:36:48.638Z,3.17
2019-03-06T08:38:52.583Z,5.50
2019-03-06T08:41:04.349Z,6.30
2019-03-06T08:43:05.307Z,4.60
2019-03-06T08:45:10.052Z,6.37
2019-03-06T08:47:22.991Z,4.67
2019-03-06T08:49:38.978Z,3.37
2019-03-06T08:51:49.369Z,5.53
2019-03-06T08:54:02.435Z,4.97
2019-03-06T08:56:13.995Z,3.60
2019-03-06T08:58:43.489Z,4.37
2019-03-06T09:00:47.855Z,4.63
2019-03-06T09:03:21.730Z,6.60
2019-03-06T09:05:54.718Z,5.60
2019-03-06T09:08:08.179Z,4.47
2019-03-06T09:10:26.700Z,5.43
2019-03-06T09:12:47.518Z,6.77
2019-03-06T09:15:13.527Z,4.67
2019-03-06T09:17:27.251Z,5.07
2019-03-06T09:19:49.747Z,3.97
2019-03-06T09:21:52.865Z,3.57
2019-03-06T09:24:18.911Z,5.07
2019-03-06T09:26:36.751Z,3.23
2019-03-06T09:28:48.532Z,3.87
2019-03-06T09:31:04.969Z,5.10
2019-03-06T09:33:37.243Z,3.70
2019-03-06T09:35:54.318Z,4.27
2019-03-06T09:38:14.709Z,2.80
2019-03-06T09:40:37.591Z,3.80
2019-03-06T09:42:59.231Z,2.40
2019-03-06T09:45:20.999Z,3.10
2019-03-06T09:47:33.867Z,2.87
2019-03-06T09:49:46.332Z,2.20
2019-03-06T09:51:57.712Z,4.40
2019-03-06T09:54:21.079Z,2.37
2019-03-06T09:56:35.835Z,3.60
2019-03-06T09:59:05.130Z,5.37
2019-03-06T10:01:18.522Z,3.43
2019-03-06T10:03:44.433Z,3.43
2019-03-06T10:06:07.403Z,1.97
2019-03-06T10:08:30.411Z,3.17
2019-03-06T10:10:57.454Z,4.07
2019-03-06T10:13:11.583Z,4.37
2019-03-06T10:15:33.322Z,1.97
2019-03-06T10:17:48.072Z,2.53
2019-03-06T10:19:56.627Z,2.60
2019-03-06T10:22:00.571Z,3.47
2019-03-06T10:24:05.232Z,2.17
2019-03-06T10:26:09.343Z,2.87
2019-03-06T10:28:14.438Z,2.10
2019-03-06T10:30:18.896Z,4.23
2019-03-06T10:32:23.014Z,3.07
2019-03-06T10:34:26.980Z,3.73
2019-03-06T10:36:31.041Z,2.87
2019-03-06T10:38:35.622Z,3.43
2019-03-06T10:40:39.526Z,3.23
2019-03-06T10:42:43.521Z,3.80
2019-03-06T10:44:49.281Z,2.03
2019-03-06T10:46:53.119Z,4.73
2019-03-06T10:48:57.052Z,4.07
2019-03-06T10:51:00.924Z,3.37
2019-03-06T10:53:05.179Z,2.93
2019-03-06T10:55:10.520Z,2.63
2019-03-06T10:57:14.418Z,5.27
2019-03-06T10:59:18.663Z,4.13
2019-03-06T11:01:22.743Z,7.83
2019-03-06T11:03:47.862Z,3.10
2019-03-06T11:05:51.890Z,3.70
2019-03-06T11:07:56.456Z,3.03
2019-03-06T11:10:00.363Z,4.50
2019-03-06T11:12:07.095Z,1.63
2019-03-06T11:14:11.352Z,2.20
2019-03-06T11:16:17.912Z,3.37
2019-03-06T11:18:21.143Z,5.97
2019-03-06T11:20:27.591Z,2.17
2019-03-06T11:22:31.463Z,2.87
2019-03-06T11:24:35.723Z,3.23
2019-03-06T11:26:39.818Z,3.13
2019-03-06T11:28:43.682Z,2.93
2019-03-06T11:30:50.211Z,2.37
2019-03-06T11:32:54.589Z,3.97
2019-03-06T11:34:58.612Z,5.03
2019-03-06T11:37:02.929Z,2.30
2019-03-06T11:39:10.150Z,2.87
2019-03-06T11:41:14.256Z,2.20
2019-03-06T11:43:18.218Z,1.97
2019-03-06T11:45:22.456Z,3.20
2019-03-06T11:47:26.497Z,2.00
2019-03-06T11:49:30.437Z,7.37
2019-03-06T11:51:34.885Z,2.60
2019-03-06T11:53:38.815Z,6.90
2019-03-06T11:55:42.896Z,4.30
2019-03-06T11:57:47.024Z,2.63
2019-03-06T11:59:51.116Z,6.90
2019-03-06T12:01:55.378Z,4.83
2019-03-06T12:03:59.554Z,2.03
2019-03-06T12:06:03.867Z,4.60
2019-03-06T12:08:10.166Z,3.57
2019-03-06T12:10:14.467Z,2.67
2019-03-06T12:12:18.710Z,5.67
2019-03-06T12:14:22.866Z,3.27
2019-03-06T12:16:26.771Z,3.53
2019-03-06T12:18:30.682Z,2.60
2019-03-06T12:20:35.203Z,2.70
2019-03-06T12:22:39.526Z,36.80
2019-03-06T12:24:43.539Z,5.27
2019-03-06T12:26:48.443Z,3.43
2019-03-06T12:28:52.228Z,4.50
2019-03-06T12:30:56.409Z,4.77
2019-03-06T12:33:00.291Z,4.40
2019-03-06T12:35:06.103Z,3.27
2019-03-06T12:37:09.911Z,3.83
2019-03-06T12:39:14.148Z,6.33
2019-03-06T12:41:18.013Z,4.87
2019-03-06T12:43:21.925Z,3.37
2019-03-06T12:45:27.343Z,2.53
2019-03-06T12:47:31.212Z,5.93
2019-03-06T12:49:36.103Z,2.73
2019-03-06T12:51:40.330Z,3.23
2019-03-06T12:53:44.316Z,4.87
2019-03-06T12:55:48.258Z,3.60
2019-03-06T12:57:59.121Z,5.23
2019-03-06T12:59:57.629Z,2.80
2019-03-06T13:02:01.427Z,4.67
2019-03-06T13:04:08.665Z,3.97
2019-03-06T13:06:12.706Z,3.53
2019-03-06T13:09:22.317Z,4.43
2019-03-06T13:10:22.551Z,3.47
2019-03-06T13:12:29.130Z,3.10
2019-03-06T13:14:32.835Z,6.10
2019-03-06T13:16:37.112Z,4.47
2019-03-06T13:18:41.039Z,4.60
2019-03-06T13:20:44.912Z,4.30
2019-03-06T13:22:49.259Z,4.53
2019-03-06T13:24:53.078Z,3.27
2019-03-06T13:26:58.089Z,3.53
2019-03-06T13:29:02.075Z,4.63
2019-03-06T13:31:07.029Z,4.13
2019-03-06T13:33:28.779Z,4.37
2019-03-06T13:35:33.215Z,2.60
2019-03-06T13:37:37.546Z,4.47
2019-03-06T13:39:41.524Z,4.20
2019-03-06T13:41:45.826Z,3.57
2019-03-06T13:43:49.927Z,3.67
2019-03-06T13:45:53.854Z,3.87
2019-03-06T13:47:57.808Z,2.57
2019-03-06T13:50:01.774Z,1.60
2019-03-06T13:52:06.540Z,5.20
2019-03-06T13:54:10.809Z,6.83
2019-03-06T13:56:14.774Z,3.17
2019-03-06T13:58:18.911Z,4.00
2019-03-06T14:00:23.243Z,4.00
2019-03-06T14:02:27.420Z,3.10
2019-03-06T14:04:31.398Z,4.80
2019-03-06T14:06:35.773Z,3.23
2019-03-06T14:08:39.703Z,4.13
2019-03-06T14:10:43.659Z,4.10
2019-03-06T14:12:48.288Z,5.20
2019-03-06T14:14:52.272Z,2.13
2019-03-06T14:16:56.435Z,2.23
2019-03-06T14:19:00.382Z,2.33
2019-03-06T14:21:04.547Z,5.20
2019-03-06T14:23:08.678Z,3.90
2019-03-06T14:25:13.899Z,4.10
2019-03-06T14:27:18.227Z,1.73
2019-03-06T14:29:22.047Z,5.43
2019-03-06T14:31:26.016Z,4.23
2019-03-06T14:33:29.878Z,4.77
2019-03-06T14:35:33.918Z,2.90
2019-03-06T14:37:38.483Z,2.30
2019-03-06T14:39:42.475Z,2.47
2019-03-06T14:41:46.338Z,2.80
2019-03-06T14:43:50.445Z,5.87
2019-03-06T14:45:55.096Z,7.43
2019-03-06T14:47:59.239Z,2.47
2019-03-06T14:50:03.033Z,4.47
2019-03-06T14:52:07.847Z,3.47
2019-03-06T14:54:11.986Z,5.13
2019-03-06T14:56:15.874Z,6.97
2019-03-06T14:58:20.054Z,3.63
2019-03-06T15:00:24.155Z,4.80
2019-03-06T15:02:28.163Z,6.03
2019-03-06T15:04:32.126Z,2.67
2019-03-06T15:06:36.233Z,3.83
2019-03-06T15:08:40.113Z,2.13
2019-03-06T15:10:43.991Z,3.47
2019-03-06T15:12:47.927Z,3.17
2019-03-06T15:14:52.679Z,4.47
2019-03-06T15:16:56.695Z,2.23
2019-03-06T15:19:00.629Z,3.60
2019-03-06T15:21:04.672Z,2.67
2019-03-06T15:23:08.923Z,4.67
2019-03-06T15:25:15.505Z,2.30
2019-03-06T15:27:19.420Z,6.00
2019-03-06T15:29:23.279Z,4.23
2019-03-06T15:31:27.264Z,3.47
2019-03-06T15:33:31.481Z,4.73
2019-03-06T15:35:35.707Z,2.83
2019-03-06T15:37:40.121Z,4.47
2019-03-06T15:39:48.592Z,6.20
2019-03-06T15:41:49.667Z,4.83
2019-03-06T15:43:53.607Z,4.43
2019-03-06T15:45:57.486Z,4.60
2019-03-06T15:48:01.492Z,7.63
2019-03-06T15:50:07.184Z,4.80
2019-03-06T15:52:12.065Z,6.00
2019-03-06T15:54:25.646Z,4.07
2019-03-06T15:56:29.751Z,3.60
2019-03-06T15:58:34.087Z,4.47
2019-03-06T16:00:45.754Z,4.80
2019-03-06T16:02:44.375Z,3.60
2019-03-06T16:04:48.422Z,7.60
2019-03-06T16:06:54.229Z,3.73
2019-03-06T16:08:58.129Z,6.27
2019-03-06T16:11:02.410Z,4.30
2019-03-06T16:13:06.831Z,5.93
2019-03-06T16:15:11.370Z,6.80
2019-03-06T16:17:15.534Z,3.50
2019-03-06T16:19:19.466Z,5.10
2019-03-06T16:21:23.326Z,6.93
2019-03-06T16:23:27.268Z,6.97
2019-03-06T16:25:36.712Z,5.23
2019-03-06T16:27:37.491Z,4.43
2019-03-06T16:29:41.391Z,3.03
2019-03-06T16:31:45.527Z,2.67
2019-03-06T16:33:49.463Z,5.40
2019-03-06T16:35:53.345Z,5.43
2019-03-06T16:37:57.583Z,4.30
2019-03-06T16:40:01.446Z,6.53
2019-03-06T16:42:06.134Z,2.93
2019-03-06T16:44:10.107Z,4.60
2019-03-06T16:46:13.988Z,3.97
2019-03-06T16:48:18.464Z,3.80
2019-03-06T16:50:23.118Z,4.03
2019-03-06T16:52:27.099Z,3.10
2019-03-06T16:54:30.992Z,3.93
2019-03-06T16:56:35.002Z,3.40
2019-03-06T16:58:39.113Z,4.97
2019-03-06T17:00:43.171Z,3.33
2019-03-06T17:02:47.190Z,5.33
2019-03-06T17:04:51.200Z,4.87
2019-03-06T17:06:55.220Z,5.80
2019-03-06T17:08:59.507Z,4.87
2019-03-06T17:11:03.592Z,7.60
2019-03-06T17:13:08.216Z,5.27
2019-03-06T17:15:13.230Z,6.27
2019-03-06T17:17:17.291Z,4.60
2019-03-06T17:19:21.282Z,5.00
2019-03-06T17:21:25.289Z,6.83
2019-03-06T17:23:29.163Z,4.80
2019-03-06T17:25:33.882Z,3.87
2019-03-06T17:27:38.596Z,4.62
2019-03-06T17:29:42.565Z,4.27
2019-03-06T17:31:46.507Z,5.33
2019-03-06T17:33:50.839Z,4.23
2019-03-06T17:35:54.912Z,4.20
2019-03-06T17:37:59.424Z,5.77
2019-03-06T17:40:03.513Z,6.37
2019-03-06T17:42:08.848Z,5.37
2019-03-06T17:44:13.166Z,5.00
2019-03-06T17:46:17.028Z,5.23
2019-03-06T17:48:20.941Z,5.30
2019-03-06T17:50:25.051Z,3.90
2019-03-06T17:52:28.963Z,5.63
2019-03-06T17:54:32.865Z,6.87
2019-03-06T17:56:37.398Z,4.27
2019-03-06T17:58:41.456Z,7.13
2019-03-06T18:00:48.063Z,6.40
2019-03-06T18:02:53.554Z,5.57
2019-03-06T18:05:00.352Z,3.83
2019-03-06T18:07:06.135Z,6.30
2019-03-06T18:09:10.815Z,5.50
2019-03-06T18:11:14.711Z,3.77
2019-03-06T18:13:18.568Z,5.00
2019-03-06T18:15:22.793Z,5.20
2019-03-06T18:17:27.111Z,7.63
2019-03-06T18:19:31.039Z,3.77
2019-03-06T18:21:34.958Z,5.87
2019-03-06T18:23:40.027Z,3.97
2019-03-06T18:25:43.954Z,5.27
2019-03-06T18:27:47.818Z,6.03
2019-03-06T18:29:52.035Z,4.90
2019-03-06T18:31:55.985Z,5.73
2019-03-06T18:34:01.527Z,4.77
2019-03-06T18:36:05.431Z,4.67
2019-03-06T18:38:11.343Z,6.60
2019-03-06T18:40:16.583Z,4.10
2019-03-06T18:42:20.379Z,6.07
2019-03-06T18:44:24.257Z,3.65
2019-03-06T18:46:28.127Z,7.30
2019-03-06T18:48:32.028Z,4.80
2019-03-06T18:50:36.049Z,7.53
2019-03-06T18:52:40.854Z,3.40
2019-03-06T18:54:44.627Z,4.50
2019-03-06T18:56:48.422Z,7.13
2019-03-06T18:58:52.228Z,4.95
2019-03-06T19:00:56.178Z,4.43
2019-03-06T19:03:00.126Z,4.10
2019-03-06T19:05:05.791Z,7.00
2019-03-06T19:07:10.423Z,5.10
2019-03-06T19:09:14.419Z,5.57
2019-03-06T19:11:18.635Z,9.17
2019-03-06T19:13:22.630Z,5.23
2019-03-06T19:15:26.594Z,4.87
2019-03-06T19:17:30.872Z,7.67
2019-03-06T19:19:34.839Z,6.77
2019-03-06T19:21:39.615Z,4.83
2019-03-06T19:23:45.725Z,4.30
2019-03-06T19:25:49.350Z,3.83
2019-03-06T19:27:53.212Z,6.70
2019-03-06T19:29:57.006Z,6.40
2019-03-06T19:32:01.047Z,6.00
2019-03-06T19:34:05.051Z,8.47
2019-03-06T19:36:09.758Z,4.73
2019-03-06T19:38:13.598Z,8.57
2019-03-06T19:40:17.832Z,4.00
2019-03-06T19:42:21.983Z,7.93
2019-03-06T19:44:25.790Z,7.40
2019-03-06T19:46:29.938Z,6.53
2019-03-06T19:48:33.832Z,5.33
2019-03-06T19:50:38.038Z,5.43
2019-03-06T19:52:42.488Z,7.10
2019-03-06T19:54:46.551Z,4.83
2019-03-06T19:56:50.486Z,6.53
2019-03-06T19:58:54.332Z,4.40
2019-03-06T20:00:58.301Z,6.70
2019-03-06T20:03:02.506Z,5.80
2019-03-06T20:05:07.939Z,4.13
2019-03-06T20:07:12.179Z,6.53
2019-03-06T20:09:41.542Z,4.23
2019-03-06T20:11:45.351Z,5.37
2019-03-06T20:13:49.226Z,4.13
2019-03-06T20:15:53.207Z,5.87
2019-03-06T20:17:57.534Z,9.07
2019-03-06T20:20:01.631Z,5.33
2019-03-06T20:22:05.482Z,6.80
2019-03-06T20:24:10.125Z,5.90
2019-03-06T20:26:15.509Z,4.20
2019-03-06T20:28:19.775Z,4.60
2019-03-06T20:30:23.712Z,5.13
2019-03-06T20:32:47.255Z,4.80
2019-03-06T20:34:51.116Z,5.30
2019-03-06T20:36:54.916Z,6.03
2019-03-06T20:38:58.734Z,5.07
2019-03-06T20:41:02.729Z,7.03
2019-03-06T20:43:06.885Z,6.40
2019-03-06T20:45:11.393Z,4.50
2019-03-06T20:47:15.254Z,6.20
2019-03-06T20:49:19.043Z,6.93
2019-03-06T20:51:23.109Z,5.27
2019-03-06T20:53:27.020Z,5.13
2019-03-06T20:55:30.835Z,7.70
2019-03-06T20:57:34.900Z,3.93
2019-03-06T20:59:39.570Z,3.77
2019-03-06T21:01:43.618Z,3.97
2019-03-06T21:03:47.716Z,3.37
2019-03-06T21:05:51.834Z,4.83
2019-03-06T21:07:56.015Z,5.40
2019-03-06T21:09:59.859Z,3.37
2019-03-06T21:12:04.664Z,4.80
2019-03-06T21:14:09.162Z,5.57
2019-03-06T21:16:13.136Z,4.77
2019-03-06T21:18:17.464Z,4.87
2019-03-06T21:20:21.398Z,3.70
2019-03-06T21:22:25.202Z,5.93
2019-03-06T21:24:28.990Z,4.53
2019-03-06T21:26:32.806Z,3.33
2019-03-06T21:28:36.883Z,4.57
2019-03-06T21:30:41.774Z,3.53
2019-03-06T21:32:45.550Z,6.03
2019-03-06T21:34:49.367Z,4.90
2019-03-06T21:36:53.190Z,4.93
2019-03-06T21:38:57.239Z,3.83
2019-03-06T21:41:01.211Z,4.13
2019-03-06T21:43:05.134Z,5.33
2019-03-06T21:45:09.671Z,3.47
2019-03-06T21:47:13.664Z,5.67
2019-03-06T21:49:17.853Z,6.13
2019-03-06T21:51:21.761Z,3.80
2019-03-06T21:53:25.670Z,4.40
2019-03-06T21:55:29.572Z,4.90
2019-03-06T21:57:33.455Z,4.30
2019-03-06T21:59:37.633Z,5.13
2019-03-06T22:01:41.803Z,6.73
2019-03-06T22:03:45.648Z,4.57
2019-03-06T22:05:49.518Z,3.57
2019-03-06T22:07:53.440Z,3.17
2019-03-06T22:09:57.223Z,8.10
2019-03-06T22:12:01.003Z,5.60
2019-03-06T22:14:04.847Z,3.33
2019-03-06T22:16:09.208Z,2.77
2019-03-06T22:18:13.291Z,4.73
2019-03-06T22:20:17.771Z,5.33
2019-03-06T22:22:21.670Z,4.27
2019-03-06T22:24:25.460Z,3.50
2019-03-06T22:26:29.320Z,2.33
2019-03-06T22:28:33.130Z,3.00
2019-03-06T22:30:37.440Z,5.03
2019-03-06T22:32:41.955Z,5.43
2019-03-06T22:34:45.794Z,6.30
2019-03-06T22:36:49.681Z,4.10
2019-03-06T22:38:53.463Z,5.10
2019-03-06T22:40:57.267Z,6.87
2019-03-06T22:43:01.062Z,3.17
2019-03-06T22:45:05.515Z,5.47
2019-03-06T22:47:09.947Z,3.43
2019-03-06T22:49:13.902Z,3.83
2019-03-06T22:51:17.947Z,3.90
2019-03-06T22:53:21.772Z,4.60
2019-03-06T22:55:25.638Z,5.93
2019-03-06T22:57:29.491Z,4.03
2019-03-06T22:59:33.267Z,4.60
2019-03-06T23:01:39.279Z,4.80
2019-03-06T23:03:43.255Z,3.97
2019-03-06T23:05:47.263Z,5.83
2019-03-06T23:07:51.187Z,6.93
2019-03-06T23:09:54.984Z,4.67
2019-03-06T23:11:58.915Z,4.43
2019-03-06T23:14:02.840Z,8.63
2019-03-06T23:16:06.710Z,3.27
2019-03-06T23:18:11.399Z,6.47
2019-03-06T23:20:15.422Z,3.83
2019-03-06T23:22:19.255Z,5.50
2019-03-06T23:24:23.421Z,6.03
2019-03-06T23:26:27.395Z,4.13
2019-03-06T23:28:31.171Z,3.03
2019-03-06T23:30:34.955Z,4.57
2019-03-06T23:32:39.150Z,5.20
2019-03-06T23:34:43.415Z,4.67
2019-03-06T23:36:47.324Z,5.97
2019-03-06T23:38:52.308Z,6.20
2019-03-06T23:40:56.191Z,6.10
2019-03-06T23:43:00.051Z,5.00
2019-03-06T23:45:05.067Z,2.93
2019-03-06T23:47:08.963Z,5.60
2019-03-06T23:49:13.455Z,3.50
2019-03-06T23:51:28.172Z,5.03
2019-03-06T23:53:49.218Z,3.73
2019-03-06T23:55:55.666Z,3.67
2019-03-06T23:58:02.316Z,5.67
